sensor_id;sensor_type;location;lat;lon;timestamp;temperature;humidity
66825;DHT22;53726;54.322;10.134;2023-11-19T00:00:15;19.80;70.10
66825;DHT22;53726;54.322;10.134;2023-11-19T00:02:42;19.80;70.10
66825;DHT22;53726;54.322;10.134;2023-11-19T00:05:08;19.90;70.50
66825;DHT22;53726;54.322;10.134;2023-11-19T00:07:39;19.90;70.30
66825;DHT22;53726;54.322;10.134;2023-11-19T00:10:08;19.90;70.30
66825;DHT22;53726;54.322;10.134;2023-11-19T00:12:45;19.80;70.20
66825;DHT22;53726;54.322;10.134;2023-11-19T00:15:12;19.90;70.20
66825;DHT22;53726;54.322;10.134;2023-11-19T00:17:39;19.90;70.30
66825;DHT22;53726;54.322;10.134;2023-11-19T00:20:12;19.90;70.30
66825;DHT22;53726;54.322;10.134;2023-11-19T00:22:39;19.90;70.30
66825;DHT22;53726;54.322;10.134;2023-11-19T00:25:06;19.90;70.30
66825;DHT22;53726;54.322;10.134;2023-11-19T00:27:32;19.90;70.30
66825;DHT22;53726;54.322;10.134;2023-11-19T00:29:59;19.90;70.20
66825;DHT22;53726;54.322;10.134;2023-11-19T00:32:26;19.90;70.20
66825;DHT22;53726;54.322;10.134;2023-11-19T00:34:52;19.90;70.00
66825;DHT22;53726;54.322;10.134;2023-11-19T00:37:18;19.90;70.00
66825;DHT22;53726;54.322;10.134;2023-11-19T00:39:46;19.90;70.10
66825;DHT22;53726;54.322;10.134;2023-11-19T00:42:13;19.90;70.00
66825;DHT22;53726;54.322;10.134;2023-11-19T00:44:46;19.90;70.10
66825;DHT22;53726;54.322;10.134;2023-11-19T00:47:13;19.90;70.10
66825;DHT22;53726;54.322;10.134;2023-11-19T00:49:39;19.90;70.30
66825;DHT22;53726;54.322;10.134;2023-11-19T00:52:07;19.90;70.10
66825;DHT22;53726;54.322;10.134;2023-11-19T00:54:33;19.90;70.00
66825;DHT22;53726;54.322;10.134;2023-11-19T00:57:13;19.90;69.80
66825;DHT22;53726;54.322;10.134;2023-11-19T00:59:41;19.90;69.70
66825;DHT22;53726;54.322;10.134;2023-11-19T01:02:07;19.90;69.60
66825;DHT22;53726;54.322;10.134;2023-11-19T01:04:33;19.90;69.40
66825;DHT22;53726;54.322;10.134;2023-11-19T01:07:01;19.90;69.30
66825;DHT22;53726;54.322;10.134;2023-11-19T01:09:27;19.80;70.40
66825;DHT22;53726;54.322;10.134;2023-11-19T01:11:54;19.90;69.30
66825;DHT22;53726;54.322;10.134;2023-11-19T01:14:22;19.80;69.20
66825;DHT22;53726;54.322;10.134;2023-11-19T01:16:48;19.90;69.30
66825;DHT22;53726;54.322;10.134;2023-11-19T01:19:14;19.80;69.30
66825;DHT22;53726;54.322;10.134;2023-11-19T01:21:39;19.80;69.20
66825;DHT22;53726;54.322;10.134;2023-11-19T01:24:05;19.80;69.30
66825;DHT22;53726;54.322;10.134;2023-11-19T01:26:35;19.80;69.30
66825;DHT22;53726;54.322;10.134;2023-11-19T01:29:01;19.80;69.30
66825;DHT22;53726;54.322;10.134;2023-11-19T01:31:27;19.80;69.30
66825;DHT22;53726;54.322;10.134;2023-11-19T01:33:53;19.80;69.20
66825;DHT22;53726;54.322;10.134;2023-11-19T01:36:18;19.80;69.10
66825;DHT22;53726;54.322;10.134;2023-11-19T01:38:45;19.80;69.20
66825;DHT22;53726;54.322;10.134;2023-11-19T01:41:10;19.80;70.20
66825;DHT22;53726;54.322;10.134;2023-11-19T01:43:37;19.80;70.10
66825;DHT22;53726;54.322;10.134;2023-11-19T01:46:05;19.80;68.90
66825;DHT22;53726;54.322;10.134;2023-11-19T01:48:32;19.80;69.00
66825;DHT22;53726;54.322;10.134;2023-11-19T01:51:00;19.80;69.00
66825;DHT22;53726;54.322;10.134;2023-11-19T01:53:33;19.80;69.00
66825;DHT22;53726;54.322;10.134;2023-11-19T01:56:00;19.80;68.90
66825;DHT22;53726;54.322;10.134;2023-11-19T01:58:26;19.70;69.00
66825;DHT22;53726;54.322;10.134;2023-11-19T02:00:53;19.70;68.80
66825;DHT22;53726;54.322;10.134;2023-11-19T02:03:19;19.80;68.90
66825;DHT22;53726;54.322;10.134;2023-11-19T02:05:47;19.70;68.90
66825;DHT22;53726;54.322;10.134;2023-11-19T02:08:15;19.80;68.90
66825;DHT22;53726;54.322;10.134;2023-11-19T02:10:41;19.70;68.90
66825;DHT22;53726;54.322;10.134;2023-11-19T02:13:09;19.70;68.80
66825;DHT22;53726;54.322;10.134;2023-11-19T02:15:35;19.70;68.80
66825;DHT22;53726;54.322;10.134;2023-11-19T02:18:20;19.70;68.90
66825;DHT22;53726;54.322;10.134;2023-11-19T02:20:48;19.70;68.90
66825;DHT22;53726;54.322;10.134;2023-11-19T02:23:15;19.70;68.90
66825;DHT22;53726;54.322;10.134;2023-11-19T02:25:46;19.70;69.10
66825;DHT22;53726;54.322;10.134;2023-11-19T02:28:19;19.70;69.10
66825;DHT22;53726;54.322;10.134;2023-11-19T02:30:47;19.80;69.00
66825;DHT22;53726;54.322;10.134;2023-11-19T02:33:14;19.70;69.00
66825;DHT22;53726;54.322;10.134;2023-11-19T02:35:40;19.70;69.00
66825;DHT22;53726;54.322;10.134;2023-11-19T02:38:07;19.70;69.00
66825;DHT22;53726;54.322;10.134;2023-11-19T02:40:33;19.70;69.00
66825;DHT22;53726;54.322;10.134;2023-11-19T02:42:59;19.70;69.10
66825;DHT22;53726;54.322;10.134;2023-11-19T02:45:25;19.80;69.20
66825;DHT22;53726;54.322;10.134;2023-11-19T02:47:52;19.80;69.10
66825;DHT22;53726;54.322;10.134;2023-11-19T02:50:28;19.70;69.00
66825;DHT22;53726;54.322;10.134;2023-11-19T02:52:54;19.80;69.10
66825;DHT22;53726;54.322;10.134;2023-11-19T02:55:22;19.80;69.10
66825;DHT22;53726;54.322;10.134;2023-11-19T02:57:49;19.80;69.10
66825;DHT22;53726;54.322;10.134;2023-11-19T03:00:15;19.80;69.00
66825;DHT22;53726;54.322;10.134;2023-11-19T03:02:44;19.70;68.80
66825;DHT22;53726;54.322;10.134;2023-11-19T03:05:15;19.80;68.90
66825;DHT22;53726;54.322;10.134;2023-11-19T03:07:43;19.70;69.00
66825;DHT22;53726;54.322;10.134;2023-11-19T03:10:18;19.80;68.90
66825;DHT22;53726;54.322;10.134;2023-11-19T03:12:46;19.80;68.90
66825;DHT22;53726;54.322;10.134;2023-11-19T03:15:17;19.80;68.90
66825;DHT22;53726;54.322;10.134;2023-11-19T03:17:50;19.70;68.80
66825;DHT22;53726;54.322;10.134;2023-11-19T03:20:16;19.70;68.80
66825;DHT22;53726;54.322;10.134;2023-11-19T03:22:42;19.80;68.70
66825;DHT22;53726;54.322;10.134;2023-11-19T03:25:08;19.70;68.70
66825;DHT22;53726;54.322;10.134;2023-11-19T03:27:35;19.80;68.70
66825;DHT22;53726;54.322;10.134;2023-11-19T03:30:08;19.70;68.70
66825;DHT22;53726;54.322;10.134;2023-11-19T03:32:37;19.70;68.60
66825;DHT22;53726;54.322;10.134;2023-11-19T03:35:05;19.70;68.60
66825;DHT22;53726;54.322;10.134;2023-11-19T03:37:34;19.70;68.50
66825;DHT22;53726;54.322;10.134;2023-11-19T03:40:02;19.70;68.40
66825;DHT22;53726;54.322;10.134;2023-11-19T03:42:28;19.70;68.40
66825;DHT22;53726;54.322;10.134;2023-11-19T03:44:55;19.70;68.40
66825;DHT22;53726;54.322;10.134;2023-11-19T03:47:22;19.70;68.70
66825;DHT22;53726;54.322;10.134;2023-11-19T03:49:51;19.70;68.70
66825;DHT22;53726;54.322;10.134;2023-11-19T03:52:18;19.70;68.60
66825;DHT22;53726;54.322;10.134;2023-11-19T03:54:44;19.70;68.70
66825;DHT22;53726;54.322;10.134;2023-11-19T03:57:11;19.70;68.50
66825;DHT22;53726;54.322;10.134;2023-11-19T03:59:37;19.70;68.40
66825;DHT22;53726;54.322;10.134;2023-11-19T04:02:04;19.70;68.40
66825;DHT22;53726;54.322;10.134;2023-11-19T04:04:34;19.70;68.30
66825;DHT22;53726;54.322;10.134;2023-11-19T04:07:00;19.70;68.40
66825;DHT22;53726;54.322;10.134;2023-11-19T04:09:26;19.80;68.40
66825;DHT22;53726;54.322;10.134;2023-11-19T04:11:51;19.70;68.40
66825;DHT22;53726;54.322;10.134;2023-11-19T04:14:19;19.70;68.40
66825;DHT22;53726;54.322;10.134;2023-11-19T04:16:45;19.70;68.60
66825;DHT22;53726;54.322;10.134;2023-11-19T04:19:11;19.70;68.50
66825;DHT22;53726;54.322;10.134;2023-11-19T04:21:40;19.70;68.40
66825;DHT22;53726;54.322;10.134;2023-11-19T04:24:07;19.70;68.40
66825;DHT22;53726;54.322;10.134;2023-11-19T04:26:34;19.70;68.30
66825;DHT22;53726;54.322;10.134;2023-11-19T04:28:59;19.70;68.30
66825;DHT22;53726;54.322;10.134;2023-11-19T04:31:29;19.70;68.20
66825;DHT22;53726;54.322;10.134;2023-11-19T04:33:59;19.70;68.10
66825;DHT22;53726;54.322;10.134;2023-11-19T04:36:26;19.70;68.10
66825;DHT22;53726;54.322;10.134;2023-11-19T04:38:51;19.70;68.10
66825;DHT22;53726;54.322;10.134;2023-11-19T04:41:18;19.70;68.10
66825;DHT22;53726;54.322;10.134;2023-11-19T04:43:44;19.70;68.10
66825;DHT22;53726;54.322;10.134;2023-11-19T04:46:09;19.70;68.20
66825;DHT22;53726;54.322;10.134;2023-11-19T04:48:37;19.70;68.30
66825;DHT22;53726;54.322;10.134;2023-11-19T04:51:04;19.70;68.30
66825;DHT22;53726;54.322;10.134;2023-11-19T04:53:30;19.70;68.60
66825;DHT22;53726;54.322;10.134;2023-11-19T04:55:56;19.80;68.10
66825;DHT22;53726;54.322;10.134;2023-11-19T04:58:22;19.70;68.30
66825;DHT22;53726;54.322;10.134;2023-11-19T05:00:47;19.70;68.10
66825;DHT22;53726;54.322;10.134;2023-11-19T05:03:14;19.70;68.10
66825;DHT22;53726;54.322;10.134;2023-11-19T05:05:40;19.70;68.00
66825;DHT22;53726;54.322;10.134;2023-11-19T05:08:07;19.70;68.00
66825;DHT22;53726;54.322;10.134;2023-11-19T05:10:32;19.70;68.00
66825;DHT22;53726;54.322;10.134;2023-11-19T05:12:59;19.70;68.00
66825;DHT22;53726;54.322;10.134;2023-11-19T05:15:26;19.70;67.90
66825;DHT22;53726;54.322;10.134;2023-11-19T05:17:54;19.70;68.00
66825;DHT22;53726;54.322;10.134;2023-11-19T05:20:35;19.70;68.10
66825;DHT22;53726;54.322;10.134;2023-11-19T05:23:00;19.70;67.90
66825;DHT22;53726;54.322;10.134;2023-11-19T05:25:26;19.70;68.10
66825;DHT22;53726;54.322;10.134;2023-11-19T05:27:54;19.70;68.30
66825;DHT22;53726;54.322;10.134;2023-11-19T05:30:20;19.70;68.10
66825;DHT22;53726;54.322;10.134;2023-11-19T05:32:46;19.70;68.00
66825;DHT22;53726;54.322;10.134;2023-11-19T05:35:12;19.70;68.10
66825;DHT22;53726;54.322;10.134;2023-11-19T05:37:38;19.70;68.00
66825;DHT22;53726;54.322;10.134;2023-11-19T05:40:05;19.80;68.10
66825;DHT22;53726;54.322;10.134;2023-11-19T05:42:40;19.70;68.30
66825;DHT22;53726;54.322;10.134;2023-11-19T05:45:07;19.70;68.40
66825;DHT22;53726;54.322;10.134;2023-11-19T05:47:40;19.70;68.30
66825;DHT22;53726;54.322;10.134;2023-11-19T05:50:13;19.80;68.20
66825;DHT22;53726;54.322;10.134;2023-11-19T05:52:40;19.70;68.10
66825;DHT22;53726;54.322;10.134;2023-11-19T05:55:06;19.70;68.10
66825;DHT22;53726;54.322;10.134;2023-11-19T05:57:36;19.70;68.10
66825;DHT22;53726;54.322;10.134;2023-11-19T06:00:10;19.70;68.20
66825;DHT22;53726;54.322;10.134;2023-11-19T06:02:36;19.70;68.10
66825;DHT22;53726;54.322;10.134;2023-11-19T06:05:04;19.70;68.10
66825;DHT22;53726;54.322;10.134;2023-11-19T06:07:31;19.70;68.20
66825;DHT22;53726;54.322;10.134;2023-11-19T06:09:58;19.70;68.10
66825;DHT22;53726;54.322;10.134;2023-11-19T06:12:23;19.70;68.10
66825;DHT22;53726;54.322;10.134;2023-11-19T06:14:49;19.70;68.20
66825;DHT22;53726;54.322;10.134;2023-11-19T06:17:15;19.70;68.40
66825;DHT22;53726;54.322;10.134;2023-11-19T06:19:41;19.70;68.40
66825;DHT22;53726;54.322;10.134;2023-11-19T06:22:07;19.70;68.30
66825;DHT22;53726;54.322;10.134;2023-11-19T06:24:33;19.70;68.50
66825;DHT22;53726;54.322;10.134;2023-11-19T06:26:59;19.70;68.40
66825;DHT22;53726;54.322;10.134;2023-11-19T06:29:25;19.70;68.20
66825;DHT22;53726;54.322;10.134;2023-11-19T06:31:50;19.70;68.20
66825;DHT22;53726;54.322;10.134;2023-11-19T06:34:17;19.70;68.40
66825;DHT22;53726;54.322;10.134;2023-11-19T06:36:44;19.70;68.30
66825;DHT22;53726;54.322;10.134;2023-11-19T06:39:10;19.70;68.30
66825;DHT22;53726;54.322;10.134;2023-11-19T06:41:44;19.70;68.40
66825;DHT22;53726;54.322;10.134;2023-11-19T06:44:11;19.70;68.30
66825;DHT22;53726;54.322;10.134;2023-11-19T06:46:38;19.70;68.30
66825;DHT22;53726;54.322;10.134;2023-11-19T06:49:04;19.70;68.30
66825;DHT22;53726;54.322;10.134;2023-11-19T06:51:31;19.70;68.10
66825;DHT22;53726;54.322;10.134;2023-11-19T06:53:56;19.70;68.30
66825;DHT22;53726;54.322;10.134;2023-11-19T06:56:23;19.70;68.10
66825;DHT22;53726;54.322;10.134;2023-11-19T06:58:50;19.70;68.10
66825;DHT22;53726;54.322;10.134;2023-11-19T07:01:19;19.70;68.10
66825;DHT22;53726;54.322;10.134;2023-11-19T07:03:46;19.70;68.10
66825;DHT22;53726;54.322;10.134;2023-11-19T07:06:11;19.70;69.30
66825;DHT22;53726;54.322;10.134;2023-11-19T07:08:42;19.70;68.30
66825;DHT22;53726;54.322;10.134;2023-11-19T07:11:12;19.70;68.20
66825;DHT22;53726;54.322;10.134;2023-11-19T07:13:40;19.60;68.30
66825;DHT22;53726;54.322;10.134;2023-11-19T07:16:08;19.60;69.20
66825;DHT22;53726;54.322;10.134;2023-11-19T07:18:35;19.70;68.20
66825;DHT22;53726;54.322;10.134;2023-11-19T07:21:02;19.70;68.10
66825;DHT22;53726;54.322;10.134;2023-11-19T07:23:36;19.70;68.40
66825;DHT22;53726;54.322;10.134;2023-11-19T07:26:04;19.70;68.40
66825;DHT22;53726;54.322;10.134;2023-11-19T07:28:32;19.70;68.60
66825;DHT22;53726;54.322;10.134;2023-11-19T07:31:02;19.70;68.50
66825;DHT22;53726;54.322;10.134;2023-11-19T07:33:28;19.70;68.50
66825;DHT22;53726;54.322;10.134;2023-11-19T07:35:55;19.70;68.50
66825;DHT22;53726;54.322;10.134;2023-11-19T07:38:22;19.70;68.30
66825;DHT22;53726;54.322;10.134;2023-11-19T07:41:02;19.70;68.30
66825;DHT22;53726;54.322;10.134;2023-11-19T07:43:32;19.70;68.30
66825;DHT22;53726;54.322;10.134;2023-11-19T07:46:15;19.70;68.20
66825;DHT22;53726;54.322;10.134;2023-11-19T07:48:42;19.70;68.10
66825;DHT22;53726;54.322;10.134;2023-11-19T07:51:10;19.70;68.10
66825;DHT22;53726;54.322;10.134;2023-11-19T07:53:38;19.70;67.80
66825;DHT22;53726;54.322;10.134;2023-11-19T07:56:05;19.70;67.70
66825;DHT22;53726;54.322;10.134;2023-11-19T07:58:30;19.70;67.70
66825;DHT22;53726;54.322;10.134;2023-11-19T08:00:56;19.70;67.70
66825;DHT22;53726;54.322;10.134;2023-11-19T08:03:22;19.70;67.50
66825;DHT22;53726;54.322;10.134;2023-11-19T08:06:03;19.70;67.40
66825;DHT22;53726;54.322;10.134;2023-11-19T08:08:41;19.70;67.80
66825;DHT22;53726;54.322;10.134;2023-11-19T08:11:13;19.70;68.20
66825;DHT22;53726;54.322;10.134;2023-11-19T08:13:50;19.70;68.20
66825;DHT22;53726;54.322;10.134;2023-11-19T08:25:35;19.70;67.70
66825;DHT22;53726;54.322;10.134;2023-11-19T08:28:01;19.70;67.50
66825;DHT22;53726;54.322;10.134;2023-11-19T08:30:26;19.70;67.50
66825;DHT22;53726;54.322;10.134;2023-11-19T08:32:52;19.70;67.50
66825;DHT22;53726;54.322;10.134;2023-11-19T08:35:17;19.70;67.40
66825;DHT22;53726;54.322;10.134;2023-11-19T08:37:44;19.70;67.40
66825;DHT22;53726;54.322;10.134;2023-11-19T08:40:11;19.70;67.30
66825;DHT22;53726;54.322;10.134;2023-11-19T08:42:40;19.70;67.20
66825;DHT22;53726;54.322;10.134;2023-11-19T08:45:06;19.70;67.10
66825;DHT22;53726;54.322;10.134;2023-11-19T08:47:32;19.70;66.90
66825;DHT22;53726;54.322;10.134;2023-11-19T08:49:57;19.70;66.70
66825;DHT22;53726;54.322;10.134;2023-11-19T08:52:23;19.70;66.60
66825;DHT22;53726;54.322;10.134;2023-11-19T08:54:49;19.70;66.50
66825;DHT22;53726;54.322;10.134;2023-11-19T08:57:14;19.70;66.50
66825;DHT22;53726;54.322;10.134;2023-11-19T08:59:42;19.70;66.40
66825;DHT22;53726;54.322;10.134;2023-11-19T09:02:07;19.70;66.30
66825;DHT22;53726;54.322;10.134;2023-11-19T09:04:36;19.70;66.30
66825;DHT22;53726;54.322;10.134;2023-11-19T09:07:03;19.70;66.40
66825;DHT22;53726;54.322;10.134;2023-11-19T09:09:29;19.70;66.60
66825;DHT22;53726;54.322;10.134;2023-11-19T09:11:56;19.70;66.70
66825;DHT22;53726;54.322;10.134;2023-11-19T09:14:21;19.60;66.60
66825;DHT22;53726;54.322;10.134;2023-11-19T09:16:51;19.70;66.60
66825;DHT22;53726;54.322;10.134;2023-11-19T09:19:17;19.70;66.60
66825;DHT22;53726;54.322;10.134;2023-11-19T09:21:43;19.60;66.80
66825;DHT22;53726;54.322;10.134;2023-11-19T09:24:08;19.70;67.00
66825;DHT22;53726;54.322;10.134;2023-11-19T09:26:34;19.70;67.10
66825;DHT22;53726;54.322;10.134;2023-11-19T09:29:03;19.70;65.80
66825;DHT22;53726;54.322;10.134;2023-11-19T09:31:29;19.60;64.50
66825;DHT22;53726;54.322;10.134;2023-11-19T09:33:56;19.50;63.90
66825;DHT22;53726;54.322;10.134;2023-11-19T09:36:23;19.50;63.90
66825;DHT22;53726;54.322;10.134;2023-11-19T09:38:48;19.50;64.50
66825;DHT22;53726;54.322;10.134;2023-11-19T09:41:16;19.40;65.40
66825;DHT22;53726;54.322;10.134;2023-11-19T09:43:43;19.40;64.30
66825;DHT22;53726;54.322;10.134;2023-11-19T09:46:09;19.40;65.40
66825;DHT22;53726;54.322;10.134;2023-11-19T09:48:37;19.40;65.40
66825;DHT22;53726;54.322;10.134;2023-11-19T09:51:09;19.40;65.90
66825;DHT22;53726;54.322;10.134;2023-11-19T09:53:36;19.50;66.00
66825;DHT22;53726;54.322;10.134;2023-11-19T09:56:02;19.50;65.90
66825;DHT22;53726;54.322;10.134;2023-11-19T09:58:32;19.50;66.10
66825;DHT22;53726;54.322;10.134;2023-11-19T10:01:04;19.50;65.90
66825;DHT22;53726;54.322;10.134;2023-11-19T10:03:36;19.50;66.00
66825;DHT22;53726;54.322;10.134;2023-11-19T10:06:08;19.50;66.00
66825;DHT22;53726;54.322;10.134;2023-11-19T10:08:37;19.50;65.90
66825;DHT22;53726;54.322;10.134;2023-11-19T10:11:08;19.50;65.90
66825;DHT22;53726;54.322;10.134;2023-11-19T10:13:38;19.50;65.90
66825;DHT22;53726;54.322;10.134;2023-11-19T10:18:35;19.60;65.80
66825;DHT22;53726;54.322;10.134;2023-11-19T10:21:12;19.60;65.80
66825;DHT22;53726;54.322;10.134;2023-11-19T10:23:51;19.60;65.60
66825;DHT22;53726;54.322;10.134;2023-11-19T10:26:18;19.60;65.50
66825;DHT22;53726;54.322;10.134;2023-11-19T10:28:46;19.60;65.50
66825;DHT22;53726;54.322;10.134;2023-11-19T10:31:16;19.60;65.60
66825;DHT22;53726;54.322;10.134;2023-11-19T10:33:43;19.60;65.50
66825;DHT22;53726;54.322;10.134;2023-11-19T10:36:13;19.60;65.50
66825;DHT22;53726;54.322;10.134;2023-11-19T10:38:41;19.60;65.50
66825;DHT22;53726;54.322;10.134;2023-11-19T10:41:26;19.60;65.50
66825;DHT22;53726;54.322;10.134;2023-11-19T10:43:53;19.60;65.60
66825;DHT22;53726;54.322;10.134;2023-11-19T10:46:18;19.60;65.50
66825;DHT22;53726;54.322;10.134;2023-11-19T10:48:51;19.60;65.50
66825;DHT22;53726;54.322;10.134;2023-11-19T10:51:20;19.60;65.50
66825;DHT22;53726;54.322;10.134;2023-11-19T10:53:47;19.60;65.50
66825;DHT22;53726;54.322;10.134;2023-11-19T10:56:14;19.60;65.50
66825;DHT22;53726;54.322;10.134;2023-11-19T10:58:44;19.60;65.50
66825;DHT22;53726;54.322;10.134;2023-11-19T11:01:21;19.60;65.50
66825;DHT22;53726;54.322;10.134;2023-11-19T11:04:00;19.60;65.50
66825;DHT22;53726;54.322;10.134;2023-11-19T11:06:27;19.60;65.50
66825;DHT22;53726;54.322;10.134;2023-11-19T11:08:56;19.60;65.50
66825;DHT22;53726;54.322;10.134;2023-11-19T11:11:23;19.60;65.50
66825;DHT22;53726;54.322;10.134;2023-11-19T11:13:50;19.60;65.50
66825;DHT22;53726;54.322;10.134;2023-11-19T11:16:18;19.60;65.50
66825;DHT22;53726;54.322;10.134;2023-11-19T11:18:44;19.60;65.50
66825;DHT22;53726;54.322;10.134;2023-11-19T11:21:11;19.60;65.50
66825;DHT22;53726;54.322;10.134;2023-11-19T11:23:56;19.60;65.50
66825;DHT22;53726;54.322;10.134;2023-11-19T11:26:32;19.60;65.50
66825;DHT22;53726;54.322;10.134;2023-11-19T11:34:25;19.60;65.60
66825;DHT22;53726;54.322;10.134;2023-11-19T11:39:35;19.60;65.50
66825;DHT22;53726;54.322;10.134;2023-11-19T11:42:31;19.60;65.50
66825;DHT22;53726;54.322;10.134;2023-11-19T11:50:11;19.60;65.50
66825;DHT22;53726;54.322;10.134;2023-11-19T11:55:25;19.50;65.50
66825;DHT22;53726;54.322;10.134;2023-11-19T11:57:53;19.50;65.50
66825;DHT22;53726;54.322;10.134;2023-11-19T12:00:37;19.60;65.50
66825;DHT22;53726;54.322;10.134;2023-11-19T12:03:07;19.60;65.50
66825;DHT22;53726;54.322;10.134;2023-11-19T12:05:43;19.50;65.50
66825;DHT22;53726;54.322;10.134;2023-11-19T12:08:27;19.50;65.50
66825;DHT22;53726;54.322;10.134;2023-11-19T12:10:58;19.60;65.60
66825;DHT22;53726;54.322;10.134;2023-11-19T12:13:55;19.60;65.50
66825;DHT22;53726;54.322;10.134;2023-11-19T12:16:29;19.50;65.50
66825;DHT22;53726;54.322;10.134;2023-11-19T12:18:57;19.60;65.50
66825;DHT22;53726;54.322;10.134;2023-11-19T12:21:31;19.60;65.50
66825;DHT22;53726;54.322;10.134;2023-11-19T12:23:58;19.60;65.50
66825;DHT22;53726;54.322;10.134;2023-11-19T12:26:33;19.60;65.50
66825;DHT22;53726;54.322;10.134;2023-11-19T12:29:01;19.60;65.50
66825;DHT22;53726;54.322;10.134;2023-11-19T12:31:29;19.60;66.50
66825;DHT22;53726;54.322;10.134;2023-11-19T12:33:56;19.60;65.50
66825;DHT22;53726;54.322;10.134;2023-11-19T12:36:23;19.60;65.60
66825;DHT22;53726;54.322;10.134;2023-11-19T12:38:50;19.60;65.50
66825;DHT22;53726;54.322;10.134;2023-11-19T12:41:17;19.60;65.50
66825;DHT22;53726;54.322;10.134;2023-11-19T12:43:47;19.60;65.50
66825;DHT22;53726;54.322;10.134;2023-11-19T12:46:22;19.60;65.50
66825;DHT22;53726;54.322;10.134;2023-11-19T12:48:53;19.60;65.50
66825;DHT22;53726;54.322;10.134;2023-11-19T12:51:20;19.60;65.50
66825;DHT22;53726;54.322;10.134;2023-11-19T12:53:50;19.60;66.00
66825;DHT22;53726;54.322;10.134;2023-11-19T12:56:24;19.50;65.50
66825;DHT22;53726;54.322;10.134;2023-11-19T12:59:01;19.50;65.50
66825;DHT22;53726;54.322;10.134;2023-11-19T13:01:37;19.60;65.50
66825;DHT22;53726;54.322;10.134;2023-11-19T13:04:15;19.60;65.50
66825;DHT22;53726;54.322;10.134;2023-11-19T13:06:44;19.60;65.50
66825;DHT22;53726;54.322;10.134;2023-11-19T13:09:21;19.60;65.50
66825;DHT22;53726;54.322;10.134;2023-11-19T13:11:46;19.60;65.50
66825;DHT22;53726;54.322;10.134;2023-11-19T13:14:12;19.60;65.50
66825;DHT22;53726;54.322;10.134;2023-11-19T13:16:39;19.60;65.50
66825;DHT22;53726;54.322;10.134;2023-11-19T13:19:08;19.60;65.60
66825;DHT22;53726;54.322;10.134;2023-11-19T13:21:35;19.60;65.50
66825;DHT22;53726;54.322;10.134;2023-11-19T13:24:02;19.60;65.50
66825;DHT22;53726;54.322;10.134;2023-11-19T13:26:29;19.60;65.50
66825;DHT22;53726;54.322;10.134;2023-11-19T13:28:56;19.60;65.50
66825;DHT22;53726;54.322;10.134;2023-11-19T13:31:23;19.60;65.50
66825;DHT22;53726;54.322;10.134;2023-11-19T13:33:49;19.60;65.50
66825;DHT22;53726;54.322;10.134;2023-11-19T13:36:15;19.60;65.50
66825;DHT22;53726;54.322;10.134;2023-11-19T13:38:40;19.60;65.50
66825;DHT22;53726;54.322;10.134;2023-11-19T13:41:07;19.60;65.50
66825;DHT22;53726;54.322;10.134;2023-11-19T13:43:38;19.60;66.50
66825;DHT22;53726;54.322;10.134;2023-11-19T13:46:04;19.60;65.50
66825;DHT22;53726;54.322;10.134;2023-11-19T13:48:32;19.60;65.50
66825;DHT22;53726;54.322;10.134;2023-11-19T13:50:57;19.60;65.50
66825;DHT22;53726;54.322;10.134;2023-11-19T13:53:24;19.60;65.50
66825;DHT22;53726;54.322;10.134;2023-11-19T13:55:50;19.60;65.60
66825;DHT22;53726;54.322;10.134;2023-11-19T13:58:15;19.60;65.50
66825;DHT22;53726;54.322;10.134;2023-11-19T14:00:48;19.60;65.50
66825;DHT22;53726;54.322;10.134;2023-11-19T14:03:15;19.60;65.50
66825;DHT22;53726;54.322;10.134;2023-11-19T14:05:41;19.60;65.50
66825;DHT22;53726;54.322;10.134;2023-11-19T14:08:07;19.60;65.50
66825;DHT22;53726;54.322;10.134;2023-11-19T14:10:41;19.60;65.50
66825;DHT22;53726;54.322;10.134;2023-11-19T14:13:07;19.50;65.50
66825;DHT22;53726;54.322;10.134;2023-11-19T14:15:34;19.60;65.50
66825;DHT22;53726;54.322;10.134;2023-11-19T14:18:02;19.60;65.50
66825;DHT22;53726;54.322;10.134;2023-11-19T14:20:28;19.60;65.60
66825;DHT22;53726;54.322;10.134;2023-11-19T14:22:55;19.60;65.50
66825;DHT22;53726;54.322;10.134;2023-11-19T14:25:20;19.50;65.50
66825;DHT22;53726;54.322;10.134;2023-11-19T14:27:47;19.60;65.50
66825;DHT22;53726;54.322;10.134;2023-11-19T14:30:13;19.60;65.50
66825;DHT22;53726;54.322;10.134;2023-11-19T14:33:00;19.60;65.50
66825;DHT22;53726;54.322;10.134;2023-11-19T14:35:29;19.60;65.70
66825;DHT22;53726;54.322;10.134;2023-11-19T14:37:56;19.60;65.60
66825;DHT22;53726;54.322;10.134;2023-11-19T14:40:22;19.60;65.80
66825;DHT22;53726;54.322;10.134;2023-11-19T14:42:50;19.60;65.80
66825;DHT22;53726;54.322;10.134;2023-11-19T14:45:18;19.60;65.90
66825;DHT22;53726;54.322;10.134;2023-11-19T14:47:44;19.60;65.90
66825;DHT22;53726;54.322;10.134;2023-11-19T14:50:12;19.60;65.90
66825;DHT22;53726;54.322;10.134;2023-11-19T14:52:38;19.60;66.00
66825;DHT22;53726;54.322;10.134;2023-11-19T14:55:04;19.60;66.10
66825;DHT22;53726;54.322;10.134;2023-11-19T14:57:31;19.60;66.20
66825;DHT22;53726;54.322;10.134;2023-11-19T14:59:57;19.60;66.20
66825;DHT22;53726;54.322;10.134;2023-11-19T15:02:23;19.60;66.10
66825;DHT22;53726;54.322;10.134;2023-11-19T15:04:48;19.60;66.10
66825;DHT22;53726;54.322;10.134;2023-11-19T15:07:15;19.60;66.20
66825;DHT22;53726;54.322;10.134;2023-11-19T15:09:40;19.60;66.10
66825;DHT22;53726;54.322;10.134;2023-11-19T15:12:07;19.60;66.20
66825;DHT22;53726;54.322;10.134;2023-11-19T15:14:34;19.60;66.20
66825;DHT22;53726;54.322;10.134;2023-11-19T15:17:00;19.70;66.20
66825;DHT22;53726;54.322;10.134;2023-11-19T15:19:26;19.70;66.20
66825;DHT22;53726;54.322;10.134;2023-11-19T15:21:53;19.70;66.20
66825;DHT22;53726;54.322;10.134;2023-11-19T15:24:22;19.70;66.30
66825;DHT22;53726;54.322;10.134;2023-11-19T15:26:48;19.70;66.40
66825;DHT22;53726;54.322;10.134;2023-11-19T15:29:14;19.70;67.50
66825;DHT22;53726;54.322;10.134;2023-11-19T15:31:43;19.70;66.50
66825;DHT22;53726;54.322;10.134;2023-11-19T15:34:10;19.70;66.60
66825;DHT22;53726;54.322;10.134;2023-11-19T15:36:41;19.70;66.60
66825;DHT22;53726;54.322;10.134;2023-11-19T15:39:09;19.70;66.90
66825;DHT22;53726;54.322;10.134;2023-11-19T15:41:35;19.70;66.70
66825;DHT22;53726;54.322;10.134;2023-11-19T15:44:01;19.70;66.50
66825;DHT22;53726;54.322;10.134;2023-11-19T15:46:30;19.70;66.40
66825;DHT22;53726;54.322;10.134;2023-11-19T15:49:03;19.70;66.40